createdAt,value
2018-12-20T00:00:35.897Z,1009.82
2018-12-20T00:01:35.863Z,1009.85
2018-12-20T00:02:36.869Z,1009.83
2018-12-20T00:03:35.957Z,1009.83
2018-12-20T00:04:35.838Z,1009.83
2018-12-20T00:05:35.833Z,1009.78
2018-12-20T00:06:35.858Z,1009.73
2018-12-20T00:07:38.382Z,1009.75
2018-12-20T00:08:36.391Z,1009.73
2018-12-20T00:09:35.804Z,1009.64
2018-12-20T00:10:35.794Z,1009.67
2018-12-20T00:11:35.765Z,1009.67
2018-12-20T00:12:35.787Z,1009.63
2018-12-20T00:13:35.810Z,1009.67
2018-12-20T00:14:35.717Z,1009.63
2018-12-20T00:15:35.779Z,1009.68
2018-12-20T00:16:35.704Z,1009.63
2018-12-20T00:17:35.677Z,1009.68
2018-12-20T00:18:35.685Z,1009.64
2018-12-20T00:19:35.850Z,1009.60
2018-12-20T00:20:35.752Z,1009.67
2018-12-20T00:21:35.688Z,1009.67
2018-12-20T00:22:35.637Z,1009.68
2018-12-20T00:23:35.852Z,1009.69
2018-12-20T00:24:39.462Z,1009.68
2018-12-20T00:25:35.624Z,1009.74
2018-12-20T00:26:35.662Z,1009.68
2018-12-20T00:27:35.592Z,1009.70
2018-12-20T00:28:35.560Z,1009.76
2018-12-20T00:29:35.572Z,1009.74
2018-12-20T00:30:35.574Z,1009.72
2018-12-20T00:31:35.555Z,1009.78
2018-12-20T00:32:35.520Z,1009.76
2018-12-20T00:33:35.591Z,1009.76
2018-12-20T00:34:35.524Z,1009.78
2018-12-20T00:35:35.796Z,1009.77
2018-12-20T00:36:36.373Z,1009.84
2018-12-20T00:37:35.532Z,1009.88
2018-12-20T00:38:35.698Z,1009.89
2018-12-20T00:39:35.523Z,1009.86
2018-12-20T00:40:35.439Z,1009.88
2018-12-20T00:41:35.427Z,1009.97
2018-12-20T00:42:35.517Z,1009.90
2018-12-20T00:43:35.496Z,1009.91
2018-12-20T00:44:37.545Z,1009.94
2018-12-20T00:45:35.550Z,1009.92
2018-12-20T00:46:35.373Z,1009.90
2018-12-20T00:47:35.509Z,1009.94
2018-12-20T00:48:35.345Z,1009.95
2018-12-20T00:49:35.364Z,1009.89
2018-12-20T00:50:35.366Z,1009.94
2018-12-20T00:51:35.381Z,1009.94
2018-12-20T00:52:35.331Z,1009.90
2018-12-20T00:53:35.309Z,1009.99
2018-12-20T00:54:35.485Z,1009.99
2018-12-20T00:55:35.273Z,1010.04
2018-12-20T00:56:35.264Z,1010.02
2018-12-20T00:57:35.255Z,1010.01
2018-12-20T00:58:35.303Z,1009.95
2018-12-20T00:59:35.248Z,1009.98
2018-12-20T01:00:35.227Z,1010.02
2018-12-20T01:01:35.329Z,1010.00
2018-12-20T01:02:35.205Z,1009.98
2018-12-20T01:03:35.257Z,1010.00
2018-12-20T01:04:35.186Z,1010.05
2018-12-20T01:05:35.267Z,1009.99
2018-12-20T01:06:35.220Z,1010.03
2018-12-20T01:07:35.320Z,1010.01
2018-12-20T01:08:35.263Z,1010.00
2018-12-20T01:09:35.167Z,1010.07
2018-12-20T01:10:35.155Z,1009.99
2018-12-20T01:11:35.135Z,1010.05
2018-12-20T01:12:35.206Z,1010.00
2018-12-20T01:13:35.114Z,1010.01
2018-12-20T01:14:35.139Z,1010.06
2018-12-20T01:15:35.065Z,1010.00
2018-12-20T01:16:35.085Z,1009.98
2018-12-20T01:17:35.085Z,1010.00
2018-12-20T01:18:35.031Z,1010.05
2018-12-20T01:19:35.059Z,1010.06
2018-12-20T01:20:35.061Z,1010.06
2018-12-20T01:21:35.043Z,1010.05
2018-12-20T01:22:35.146Z,1010.05
2018-12-20T01:23:35.005Z,1010.08
2018-12-20T01:24:35.208Z,1010.06
2018-12-20T01:25:34.991Z,1010.01
2018-12-20T01:26:36.354Z,1010.07
2018-12-20T01:27:35.154Z,1010.02
2018-12-20T01:28:34.923Z,1010.03
2018-12-20T01:29:34.929Z,1010.01
2018-12-20T01:30:34.901Z,1009.98
2018-12-20T01:31:35.005Z,1010.00
2018-12-20T01:32:35.124Z,1009.95
2018-12-20T01:33:34.884Z,1009.98
2018-12-20T01:34:34.927Z,1009.89
2018-12-20T01:35:34.874Z,1009.97
2018-12-20T01:36:34.858Z,1009.99
2018-12-20T01:37:34.835Z,1009.94
2018-12-20T01:38:34.820Z,1009.95
2018-12-20T01:39:34.825Z,1010.03
2018-12-20T01:40:34.823Z,1009.99
2018-12-20T01:41:34.858Z,1009.97
2018-12-20T01:42:34.818Z,1009.97
2018-12-20T01:43:34.782Z,1010.00
2018-12-20T01:44:34.763Z,1009.99
2018-12-20T01:45:34.759Z,1009.99
2018-12-20T01:46:34.731Z,1009.98
2018-12-20T01:47:34.850Z,1009.98
2018-12-20T01:48:34.859Z,1009.95
2018-12-20T01:49:34.876Z,1009.98
2018-12-20T01:50:34.809Z,1009.92
2018-12-20T01:51:34.676Z,1009.97
2018-12-20T01:52:34.756Z,1009.98
2018-12-20T01:53:34.663Z,1009.93
2018-12-20T01:54:34.658Z,1009.93
2018-12-20T01:55:34.683Z,1009.89
2018-12-20T01:56:34.793Z,1009.90
2018-12-20T01:57:34.615Z,1009.94
2018-12-20T01:58:34.622Z,1009.84
2018-12-20T01:59:34.628Z,1009.88
2018-12-20T02:00:34.721Z,1009.92
2018-12-20T02:01:34.658Z,1009.92
2018-12-20T02:02:34.569Z,1009.98
2018-12-20T02:03:34.562Z,1009.83
2018-12-20T02:04:34.715Z,1009.91
2018-12-20T02:05:34.529Z,1009.86
2018-12-20T02:06:34.535Z,1009.84
2018-12-20T02:07:34.615Z,1009.85
2018-12-20T02:08:34.523Z,1009.89
2018-12-20T02:09:34.767Z,1009.89
2018-12-20T02:10:34.516Z,1009.88
2018-12-20T02:11:34.556Z,1009.99
2018-12-20T02:12:34.453Z,1009.92
2018-12-20T02:13:34.489Z,1009.83
2018-12-20T02:14:34.543Z,1009.92
2018-12-20T02:15:34.540Z,1009.85
2018-12-20T02:16:34.529Z,1009.89
2018-12-20T02:17:34.404Z,1009.89
2018-12-20T02:18:34.407Z,1009.85
2018-12-20T02:19:34.379Z,1009.73
2018-12-20T02:20:34.382Z,1009.75
2018-12-20T02:21:34.531Z,1009.86
2018-12-20T02:22:34.420Z,1009.84
2018-12-20T02:23:34.410Z,1009.73
2018-12-20T02:24:34.323Z,1009.79
2018-12-20T02:25:34.511Z,1009.70
2018-12-20T02:26:34.395Z,1009.74
2018-12-20T02:27:34.556Z,1009.73
2018-12-20T02:28:34.329Z,1009.72
2018-12-20T02:29:34.465Z,1009.77
2018-12-20T02:30:35.261Z,1009.67
2018-12-20T02:31:34.256Z,1009.72
2018-12-20T02:32:34.243Z,1009.65
2018-12-20T02:33:42.101Z,1009.65
2018-12-20T02:34:34.230Z,1009.69
2018-12-20T02:35:34.237Z,1009.64
2018-12-20T02:36:34.233Z,1009.68
2018-12-20T02:37:34.199Z,1009.68
2018-12-20T02:38:34.182Z,1009.64
2018-12-20T02:39:34.958Z,1009.65
2018-12-20T02:40:34.197Z,1009.69
2018-12-20T02:41:34.184Z,1009.61
2018-12-20T02:42:34.152Z,1009.63
2018-12-20T02:43:34.166Z,1009.58
2018-12-20T02:44:34.286Z,1009.57
2018-12-20T02:45:34.124Z,1009.59
2018-12-20T02:46:34.356Z,1009.64
2018-12-20T02:47:34.186Z,1009.56
2018-12-20T02:48:34.187Z,1009.61
2018-12-20T02:49:34.221Z,1009.56
2018-12-20T02:50:34.079Z,1009.51
2018-12-20T02:51:34.280Z,1009.59
2018-12-20T02:52:34.026Z,1009.48
2018-12-20T02:53:34.052Z,1009.54
2018-12-20T02:54:34.013Z,1009.44
2018-12-20T02:55:34.085Z,1009.48
2018-12-20T02:56:34.005Z,1009.48
2018-12-20T02:57:34.021Z,1009.47
2018-12-20T02:58:33.982Z,1009.50
2018-12-20T02:59:34.035Z,1009.52
2018-12-20T03:00:34.033Z,1009.49
2018-12-20T03:01:34.236Z,1009.55
2018-12-20T03:02:34.517Z,1009.56
2018-12-20T03:03:33.916Z,1009.53
2018-12-20T03:04:34.069Z,1009.48
2018-12-20T03:05:34.123Z,1009.51
2018-12-20T03:06:34.054Z,1009.52
2018-12-20T03:07:33.907Z,1009.44
2018-12-20T03:08:33.851Z,1009.54
2018-12-20T03:09:33.966Z,1009.47
2018-12-20T03:10:33.926Z,1009.50
2018-12-20T03:11:33.848Z,1009.48
2018-12-20T03:12:33.821Z,1009.51
2018-12-20T03:13:33.851Z,1009.55
2018-12-20T03:14:33.898Z,1009.54
2018-12-20T03:15:33.829Z,1009.52
2018-12-20T03:16:33.866Z,1009.54
2018-12-20T03:17:33.975Z,1009.53
2018-12-20T03:18:33.752Z,1009.53
2018-12-20T03:19:33.839Z,1009.55
2018-12-20T03:20:33.890Z,1009.49
2018-12-20T03:21:33.779Z,1009.50
2018-12-20T03:22:33.909Z,1009.48
2018-12-20T03:23:36.604Z,1009.48
2018-12-20T03:24:33.778Z,1009.49
2018-12-20T03:25:33.760Z,1009.51
2018-12-20T03:26:33.678Z,1009.51
2018-12-20T03:28:27.357Z,1009.51
2018-12-20T03:29:27.303Z,1009.48
2018-12-20T03:30:27.262Z,1009.40
2018-12-20T03:31:27.265Z,1009.38
2018-12-20T03:32:27.213Z,1009.43
2018-12-20T03:33:27.437Z,1009.38
2018-12-20T03:34:27.441Z,1009.35
2018-12-20T03:35:27.148Z,1009.40
2018-12-20T03:36:27.138Z,1009.41
2018-12-20T03:37:27.147Z,1009.34
2018-12-20T03:38:27.211Z,1009.41
2018-12-20T03:39:28.766Z,1009.39
2018-12-20T03:40:27.100Z,1009.39
2018-12-20T03:41:27.077Z,1009.30
2018-12-20T03:42:27.075Z,1009.41
2018-12-20T03:43:27.312Z,1009.36
2018-12-20T03:44:27.048Z,1009.33
2018-12-20T03:45:29.066Z,1009.36
2018-12-20T03:46:27.034Z,1009.37
2018-12-20T03:47:27.022Z,1009.37
2018-12-20T03:48:27.026Z,1009.37
2018-12-20T03:49:26.989Z,1009.34
2018-12-20T03:50:27.168Z,1009.34
2018-12-20T03:51:27.124Z,1009.32
2018-12-20T03:52:27.046Z,1009.38
2018-12-20T03:53:26.963Z,1009.37
2018-12-20T03:54:27.151Z,1009.28
2018-12-20T03:55:27.024Z,1009.30
2018-12-20T03:56:27.881Z,1009.29
2018-12-20T03:57:27.791Z,1009.31
2018-12-20T03:58:27.041Z,1009.31
2018-12-20T03:59:26.889Z,1009.30
2018-12-20T04:00:26.916Z,1009.22
2018-12-20T04:01:26.866Z,1009.27
2018-12-20T04:02:26.850Z,1009.27
2018-12-20T04:03:26.974Z,1009.30
2018-12-20T04:04:27.035Z,1009.30
2018-12-20T04:05:26.899Z,1009.32
2018-12-20T04:06:27.017Z,1009.39
2018-12-20T04:07:26.979Z,1009.43
2018-12-20T04:08:26.831Z,1009.34
2018-12-20T04:09:26.779Z,1009.47
2018-12-20T04:10:27.243Z,1009.40
2018-12-20T04:11:26.804Z,1009.48
2018-12-20T04:12:26.756Z,1009.42
2018-12-20T04:13:26.770Z,1009.46
2018-12-20T04:14:26.776Z,1009.42
2018-12-20T04:15:26.830Z,1009.39
2018-12-20T04:16:26.713Z,1009.45
2018-12-20T04:17:26.786Z,1009.40
2018-12-20T04:18:26.716Z,1009.42
2018-12-20T04:19:26.725Z,1009.42
2018-12-20T04:20:27.286Z,1009.41
2018-12-20T04:21:26.967Z,1009.51
2018-12-20T04:22:26.642Z,1009.42
2018-12-20T04:23:26.641Z,1009.40
2018-12-20T04:24:26.638Z,1009.41
2018-12-20T04:25:26.817Z,1009.45
2018-12-20T04:26:26.639Z,1009.39
2018-12-20T04:27:26.772Z,1009.44
2018-12-20T04:28:26.658Z,1009.47
2018-12-20T04:30:18.992Z,1009.44
2018-12-20T04:31:18.965Z,1009.45
2018-12-20T04:32:18.947Z,1009.42
2018-12-20T04:33:18.978Z,1009.39
2018-12-20T04:34:18.915Z,1009.33
2018-12-20T04:35:18.908Z,1009.37
2018-12-20T04:36:18.996Z,1009.40
2018-12-20T04:37:19.005Z,1009.38
2018-12-20T04:38:18.940Z,1009.37
2018-12-20T04:39:18.905Z,1009.32
2018-12-20T04:40:19.038Z,1009.35
2018-12-20T04:41:18.882Z,1009.29
2018-12-20T04:42:19.044Z,1009.32
2018-12-20T04:43:19.190Z,1009.29
2018-12-20T04:44:18.854Z,1009.29
2018-12-20T04:45:18.801Z,1009.33
2018-12-20T04:46:19.132Z,1009.27
2018-12-20T04:47:19.084Z,1009.33
2018-12-20T04:48:18.949Z,1009.36
2018-12-20T04:49:18.835Z,1009.34
2018-12-20T04:50:18.981Z,1009.34
2018-12-20T04:51:18.743Z,1009.39
2018-12-20T04:52:18.732Z,1009.34
2018-12-20T04:53:18.718Z,1009.35
2018-12-20T04:54:18.718Z,1009.33
2018-12-20T04:55:18.883Z,1009.30
2018-12-20T04:56:18.693Z,1009.27
2018-12-20T04:57:18.935Z,1009.31
2018-12-20T04:58:18.868Z,1009.27
2018-12-20T04:59:18.696Z,1009.32
2018-12-20T05:00:19.743Z,1009.33
2018-12-20T05:01:18.657Z,1009.34
2018-12-20T05:02:18.858Z,1009.33
2018-12-20T05:03:18.618Z,1009.32
2018-12-20T05:04:18.604Z,1009.40
2018-12-20T05:05:18.644Z,1009.42
2018-12-20T05:06:18.588Z,1009.30
2018-12-20T05:07:18.755Z,1009.32
2018-12-20T05:08:18.712Z,1009.34
2018-12-20T05:09:18.626Z,1009.32
2018-12-20T05:10:18.860Z,1009.28
2018-12-20T05:11:18.550Z,1009.28
2018-12-20T05:12:18.523Z,1009.22
2018-12-20T05:13:18.500Z,1009.22
2018-12-20T05:14:18.508Z,1009.27
2018-12-20T05:15:18.485Z,1009.27
2018-12-20T05:16:18.678Z,1009.28
2018-12-20T05:17:18.688Z,1009.35
2018-12-20T05:18:18.449Z,1009.32
2018-12-20T05:19:18.688Z,1009.26
2018-12-20T05:20:18.491Z,1009.34
2018-12-20T05:21:18.689Z,1009.28
2018-12-20T05:22:18.681Z,1009.35
2018-12-20T05:23:18.430Z,1009.31
2018-12-20T05:24:18.398Z,1009.32
2018-12-20T05:25:18.505Z,1009.33
2018-12-20T05:26:18.360Z,1009.26
2018-12-20T05:27:18.513Z,1009.29
2018-12-20T05:28:18.354Z,1009.25
2018-12-20T05:29:18.363Z,1009.27
2018-12-20T05:30:18.460Z,1009.15
2018-12-20T05:31:18.582Z,1009.19
2018-12-20T05:32:18.564Z,1009.14
2018-12-20T05:33:18.345Z,1009.17
2018-12-20T05:34:18.279Z,1009.21
2018-12-20T05:35:18.281Z,1009.24
2018-12-20T05:36:18.279Z,1009.18
2018-12-20T05:37:18.376Z,1009.21
2018-12-20T05:38:18.246Z,1009.17
2018-12-20T05:39:18.361Z,1009.24
2018-12-20T05:40:18.391Z,1009.22
2018-12-20T05:41:18.200Z,1009.15
2018-12-20T05:42:18.327Z,1009.18
2018-12-20T05:43:18.193Z,1009.18
2018-12-20T05:44:18.292Z,1009.21
2018-12-20T05:45:18.474Z,1009.18
2018-12-20T05:46:18.402Z,1009.18
2018-12-20T05:47:18.259Z,1009.22
2018-12-20T05:48:18.186Z,1009.19
2018-12-20T05:49:18.132Z,1009.22
2018-12-20T05:50:18.108Z,1009.26
2018-12-20T05:51:18.098Z,1009.22
2018-12-20T05:52:18.222Z,1009.24
2018-12-20T05:53:18.076Z,1009.31
2018-12-20T05:54:18.180Z,1009.30
2018-12-20T05:55:18.172Z,1009.31
2018-12-20T05:56:18.078Z,1009.26
2018-12-20T05:57:18.178Z,1009.30
2018-12-20T05:58:18.058Z,1009.30
2018-12-20T05:59:18.046Z,1009.27
2018-12-20T06:00:18.176Z,1009.25
2018-12-20T06:01:18.003Z,1009.27
2018-12-20T06:02:18.063Z,1009.29
2018-12-20T06:03:18.005Z,1009.26
2018-12-20T06:04:18.677Z,1009.28
2018-12-20T06:05:18.025Z,1009.23
2018-12-20T06:06:18.161Z,1009.22
2018-12-20T06:07:17.964Z,1009.24
2018-12-20T06:08:17.918Z,1009.26
2018-12-20T06:09:17.937Z,1009.26
2018-12-20T06:10:17.895Z,1009.26
2018-12-20T06:11:17.898Z,1009.29
2018-12-20T06:12:18.100Z,1009.30
2018-12-20T06:13:19.126Z,1009.29
2018-12-20T06:14:17.865Z,1009.21
2018-12-20T06:15:17.842Z,1009.27
2018-12-20T06:16:18.057Z,1009.24
2018-12-20T06:17:18.138Z,1009.26
2018-12-20T06:18:17.805Z,1009.23
2018-12-20T06:19:17.913Z,1009.23
2018-12-20T06:20:17.915Z,1009.26
2018-12-20T06:21:17.776Z,1009.23
2018-12-20T06:22:17.982Z,1009.19
2018-12-20T06:23:17.943Z,1009.16
2018-12-20T06:24:17.746Z,1009.19
2018-12-20T06:26:09.576Z,1009.22
2018-12-20T06:27:09.551Z,1009.22
2018-12-20T06:28:09.539Z,1009.15
2018-12-20T06:29:09.525Z,1009.21
2018-12-20T06:30:09.528Z,1009.20
2018-12-20T06:31:09.511Z,1009.15
2018-12-20T06:32:09.490Z,1009.15
2018-12-20T06:33:09.503Z,1009.25
2018-12-20T06:34:09.472Z,1009.17
2018-12-20T06:35:09.469Z,1009.19
2018-12-20T06:36:09.468Z,1009.18
2018-12-20T06:37:09.432Z,1009.17
2018-12-20T06:38:09.433Z,1009.15
2018-12-20T06:39:09.421Z,1009.20
2018-12-20T06:40:09.408Z,1009.14
2018-12-20T06:41:09.397Z,1009.21
2018-12-20T06:42:09.390Z,1009.22
2018-12-20T06:43:09.376Z,1009.14
2018-12-20T06:44:09.386Z,1009.11
2018-12-20T06:45:09.367Z,1009.05
2018-12-20T06:46:09.342Z,1009.15
2018-12-20T06:47:09.331Z,1009.10
2018-12-20T06:48:09.331Z,1009.09
2018-12-20T06:49:09.418Z,1009.07
2018-12-20T06:50:09.304Z,1009.08
2018-12-20T06:51:09.305Z,1009.08
2018-12-20T06:52:09.286Z,1009.10
2018-12-20T06:53:09.269Z,1009.12
2018-12-20T06:54:09.266Z,1009.08
2018-12-20T06:55:09.254Z,1009.09
2018-12-20T06:56:09.230Z,1009.21
2018-12-20T06:57:09.228Z,1009.18
2018-12-20T06:58:09.220Z,1009.19
2018-12-20T06:59:09.212Z,1009.21
2018-12-20T07:00:09.187Z,1009.21
2018-12-20T07:01:09.186Z,1009.21
2018-12-20T07:02:09.223Z,1009.19
2018-12-20T07:03:09.156Z,1009.25
2018-12-20T07:04:09.196Z,1009.26
2018-12-20T07:05:09.149Z,1009.31
2018-12-20T07:06:09.128Z,1009.29
2018-12-20T07:07:09.124Z,1009.28
2018-12-20T07:08:09.812Z,1009.26
2018-12-20T07:09:09.099Z,1009.27
2018-12-20T07:10:09.184Z,1009.30
2018-12-20T07:11:09.094Z,1009.27
2018-12-20T07:12:09.130Z,1009.32
2018-12-20T07:13:09.069Z,1009.28
2018-12-20T07:14:09.141Z,1009.29
2018-12-20T07:15:09.039Z,1009.25
2018-12-20T07:16:09.025Z,1009.28
2018-12-20T07:17:09.016Z,1009.24
2018-12-20T07:18:09.016Z,1009.32
2018-12-20T07:19:08.989Z,1009.28
2018-12-20T07:20:08.983Z,1009.26
2018-12-20T07:21:08.989Z,1009.28
2018-12-20T07:22:08.953Z,1009.26
2018-12-20T07:23:08.952Z,1009.27
2018-12-20T07:24:08.939Z,1009.26
2018-12-20T07:25:08.930Z,1009.22
2018-12-20T07:26:08.915Z,1009.23
2018-12-20T07:27:08.914Z,1009.25
2018-12-20T07:28:08.914Z,1009.24
2018-12-20T07:29:08.894Z,1009.24
2018-12-20T07:30:08.881Z,1009.19
2018-12-20T07:31:08.866Z,1009.20
2018-12-20T07:32:08.847Z,1009.26
2018-12-20T07:33:08.876Z,1009.21
2018-12-20T07:34:08.834Z,1009.22
2018-12-20T07:35:08.822Z,1009.20
2018-12-20T07:36:08.810Z,1009.27
2018-12-20T07:37:08.800Z,1009.24
2018-12-20T07:38:10.344Z,1009.21
2018-12-20T07:39:08.784Z,1009.27
2018-12-20T07:40:08.769Z,1009.23
2018-12-20T07:41:08.764Z,1009.25
2018-12-20T07:42:08.746Z,1009.29
2018-12-20T07:43:08.738Z,1009.28
2018-12-20T07:44:08.721Z,1009.32
2018-12-20T07:45:08.723Z,1009.30
2018-12-20T07:46:08.705Z,1009.34
2018-12-20T07:47:08.691Z,1009.22
2018-12-20T07:48:08.692Z,1009.33
2018-12-20T07:49:08.674Z,1009.30
2018-12-20T07:50:08.670Z,1009.28
2018-12-20T07:51:08.742Z,1009.25
2018-12-20T07:52:08.653Z,1009.28
2018-12-20T07:53:08.629Z,1009.35
2018-12-20T07:54:08.622Z,1009.29
2018-12-20T07:55:08.609Z,1009.25
2018-12-20T07:56:08.599Z,1009.23
2018-12-20T07:57:08.612Z,1009.28
2018-12-20T07:58:08.578Z,1009.23
2018-12-20T07:59:08.566Z,1009.15
2018-12-20T08:00:08.567Z,1009.28
2018-12-20T08:01:08.555Z,1009.22
2018-12-20T08:02:08.528Z,1009.29
2018-12-20T08:03:08.528Z,1009.33
2018-12-20T08:04:08.521Z,1009.24
2018-12-20T08:05:08.501Z,1009.21
2018-12-20T08:06:08.515Z,1009.25
2018-12-20T08:07:08.482Z,1009.27
2018-12-20T08:08:08.489Z,1009.25
2018-12-20T08:09:08.466Z,1009.21
2018-12-20T08:10:08.464Z,1009.19
2018-12-20T08:11:08.443Z,1009.21
2018-12-20T08:12:09.357Z,1009.29
2018-12-20T08:13:08.443Z,1009.17
2018-12-20T08:14:08.404Z,1009.33
2018-12-20T08:15:08.396Z,1009.29
2018-12-20T08:16:08.388Z,1009.30
2018-12-20T08:17:08.392Z,1009.31
2018-12-20T08:18:08.369Z,1009.37
2018-12-20T08:19:08.356Z,1009.39
2018-12-20T08:20:08.348Z,1009.33
2018-12-20T08:21:08.367Z,1009.40
2018-12-20T08:22:08.328Z,1009.36
2018-12-20T08:23:08.318Z,1009.38
2018-12-20T08:24:09.845Z,1009.43
2018-12-20T08:25:08.294Z,1009.40
2018-12-20T08:26:08.275Z,1009.42
2018-12-20T08:27:08.291Z,1009.39
2018-12-20T08:28:08.262Z,1009.49
2018-12-20T08:29:08.247Z,1009.49
2018-12-20T08:30:08.256Z,1009.45
2018-12-20T08:31:08.244Z,1009.48
2018-12-20T08:32:08.219Z,1009.49
2018-12-20T08:33:08.225Z,1009.46
2018-12-20T08:34:08.216Z,1009.50
2018-12-20T08:35:08.186Z,1009.56
2018-12-20T08:36:08.238Z,1009.53
2018-12-20T08:37:08.162Z,1009.57
2018-12-20T08:38:08.148Z,1009.54
2018-12-20T08:39:08.141Z,1009.54
2018-12-20T08:40:08.130Z,1009.55
2018-12-20T08:41:09.083Z,1009.51
2018-12-20T08:42:08.129Z,1009.59
2018-12-20T08:43:08.118Z,1009.56
2018-12-20T08:44:08.092Z,1009.52
2018-12-20T08:45:08.102Z,1009.56
2018-12-20T08:46:08.090Z,1009.57
2018-12-20T08:47:08.063Z,1009.51
2018-12-20T08:48:08.058Z,1009.59
2018-12-20T08:49:08.037Z,1009.55
2018-12-20T08:50:08.040Z,1009.53
2018-12-20T08:51:08.026Z,1009.56
2018-12-20T08:52:08.017Z,1009.58
2018-12-20T08:53:08.005Z,1009.55
2018-12-20T08:54:08.002Z,1009.57
2018-12-20T08:55:07.977Z,1009.59
2018-12-20T08:56:07.959Z,1009.58
2018-12-20T08:57:07.949Z,1009.61
2018-12-20T08:58:08.849Z,1009.57
2018-12-20T08:59:07.943Z,1009.62
2018-12-20T09:00:07.908Z,1009.65
2018-12-20T09:01:07.910Z,1009.67
2018-12-20T09:02:07.888Z,1009.64
2018-12-20T09:03:07.884Z,1009.59
2018-12-20T09:04:07.900Z,1009.64
2018-12-20T09:05:07.872Z,1009.69
2018-12-20T09:06:07.862Z,1009.68
2018-12-20T09:07:07.849Z,1009.68
2018-12-20T09:08:07.830Z,1009.63
2018-12-20T09:09:07.836Z,1009.70
2018-12-20T09:10:07.831Z,1009.68
2018-12-20T09:11:07.806Z,1009.68
2018-12-20T09:12:08.361Z,1009.70
2018-12-20T09:13:09.713Z,1009.73
2018-12-20T09:14:08.320Z,1009.71
2018-12-20T09:15:07.767Z,1009.74
2018-12-20T09:16:08.352Z,1009.77
2018-12-20T09:17:07.742Z,1009.73
2018-12-20T09:18:07.739Z,1009.75
2018-12-20T09:19:07.724Z,1009.77
2018-12-20T09:20:09.350Z,1009.73
2018-12-20T09:21:08.688Z,1009.78
2018-12-20T09:22:07.685Z,1009.77
2018-12-20T09:23:07.705Z,1009.76
2018-12-20T09:24:07.669Z,1009.76
2018-12-20T09:25:07.684Z,1009.79
2018-12-20T09:26:08.378Z,1009.79
2018-12-20T09:27:07.648Z,1009.74
2018-12-20T09:28:07.634Z,1009.74
2018-12-20T09:29:07.634Z,1009.76
2018-12-20T09:30:07.614Z,1009.70
2018-12-20T09:31:07.588Z,1009.77
2018-12-20T09:32:07.574Z,1009.70
2018-12-20T09:33:07.571Z,1009.71
2018-12-20T09:34:07.569Z,1009.74
2018-12-20T09:35:07.573Z,1009.78
2018-12-20T09:36:07.536Z,1009.83
2018-12-20T09:37:07.529Z,1009.81
2018-12-20T09:38:07.517Z,1009.78
2018-12-20T09:39:07.503Z,1009.81
2018-12-20T09:40:07.522Z,1009.82
2018-12-20T09:41:07.509Z,1009.69
2018-12-20T09:42:07.482Z,1009.72
2018-12-20T09:43:07.469Z,1009.77
2018-12-20T09:44:07.453Z,1009.76
2018-12-20T09:45:07.445Z,1009.74
2018-12-20T09:46:07.494Z,1009.77
2018-12-20T09:47:11.585Z,1009.80
2018-12-20T09:48:07.410Z,1009.72
2018-12-20T09:49:07.396Z,1009.72
2018-12-20T09:50:07.383Z,1009.74
2018-12-20T09:51:08.346Z,1009.70
2018-12-20T09:52:07.380Z,1009.66
2018-12-20T09:53:07.353Z,1009.68
2018-12-20T09:54:07.339Z,1009.65
2018-12-20T09:55:07.332Z,1009.67
2018-12-20T09:56:07.314Z,1009.67
2018-12-20T09:57:07.317Z,1009.63
2018-12-20T09:58:07.299Z,1009.71
2018-12-20T09:59:07.288Z,1009.67
2018-12-20T10:00:07.278Z,1009.64
2018-12-20T10:01:07.264Z,1009.64
2018-12-20T10:02:07.271Z,1009.61
2018-12-20T10:03:07.255Z,1009.60
2018-12-20T10:04:07.241Z,1009.56
2018-12-20T10:05:07.218Z,1009.57
2018-12-20T10:06:07.218Z,1009.53
2018-12-20T10:07:07.207Z,1009.53
2018-12-20T10:08:07.197Z,1009.54
2018-12-20T10:09:07.194Z,1009.55
2018-12-20T10:10:07.174Z,1009.55
2018-12-20T10:11:07.173Z,1009.55
2018-12-20T10:12:07.184Z,1009.52
2018-12-20T10:13:07.144Z,1009.50
2018-12-20T10:14:07.134Z,1009.52
2018-12-20T10:15:07.130Z,1009.45
2018-12-20T10:16:07.108Z,1009.52
2018-12-20T10:17:07.132Z,1009.46
2018-12-20T10:18:07.092Z,1009.49
2018-12-20T10:19:08.875Z,1009.48
2018-12-20T10:20:07.065Z,1009.47
2018-12-20T10:21:08.848Z,1009.48
2018-12-20T10:22:07.045Z,1009.45
2018-12-20T10:23:07.057Z,1009.40
2018-12-20T10:24:07.021Z,1009.44
2018-12-20T10:25:07.003Z,1009.46
2018-12-20T10:26:06.997Z,1009.37
2018-12-20T10:27:06.990Z,1009.33
2018-12-20T10:28:06.979Z,1009.35
2018-12-20T10:29:06.982Z,1009.28
2018-12-20T10:30:06.960Z,1009.26
2018-12-20T10:31:06.947Z,1009.26
2018-12-20T10:32:06.933Z,1009.25
2018-12-20T10:33:06.922Z,1009.24
2018-12-20T10:34:06.934Z,1009.20
2018-12-20T10:35:06.896Z,1009.26
2018-12-20T10:36:06.891Z,1009.26
2018-12-20T10:37:06.886Z,1009.21
2018-12-20T10:38:06.873Z,1009.19
2018-12-20T10:39:06.864Z,1009.15
2018-12-20T10:40:06.848Z,1009.20
2018-12-20T10:41:07.860Z,1009.10
2018-12-20T10:42:06.863Z,1009.07
2018-12-20T10:43:06.935Z,1009.06
2018-12-20T10:44:06.821Z,1009.09
2018-12-20T10:45:06.796Z,1009.06
2018-12-20T10:46:06.796Z,1009.07
2018-12-20T10:47:06.796Z,1009.07
2018-12-20T10:48:06.765Z,1009.06
2018-12-20T10:49:07.747Z,1009.05
2018-12-20T10:50:06.742Z,1009.07
2018-12-20T10:51:06.740Z,1009.02
2018-12-20T10:52:06.731Z,1009.05
2018-12-20T10:53:06.715Z,1008.98
2018-12-20T10:54:06.707Z,1009.02
2018-12-20T10:55:06.694Z,1009.00
2018-12-20T10:56:06.682Z,1008.96
2018-12-20T10:57:06.699Z,1008.91
2018-12-20T10:58:06.670Z,1008.94
2018-12-20T10:59:06.658Z,1008.88
2018-12-20T11:00:06.726Z,1008.92
2018-12-20T11:01:06.646Z,1008.97
2018-12-20T11:02:06.619Z,1008.87
2018-12-20T11:03:06.605Z,1008.87
2018-12-20T11:04:06.601Z,1008.80
2018-12-20T11:05:06.627Z,1008.78
2018-12-20T11:06:06.576Z,1008.80
2018-12-20T11:07:08.467Z,1008.82
2018-12-20T11:08:06.545Z,1008.75
2018-12-20T11:09:06.582Z,1008.75
2018-12-20T11:10:06.551Z,1008.77
2018-12-20T11:11:06.514Z,1008.75
2018-12-20T11:12:06.505Z,1008.76
2018-12-20T11:13:06.493Z,1008.83
2018-12-20T11:14:06.506Z,1008.70
2018-12-20T11:15:06.483Z,1008.68
2018-12-20T11:16:06.473Z,1008.68
2018-12-20T11:17:06.469Z,1008.69
2018-12-20T11:18:06.442Z,1008.69
2018-12-20T11:19:06.447Z,1008.66
2018-12-20T11:20:06.440Z,1008.66
2018-12-20T11:21:06.419Z,1008.61
2018-12-20T11:22:06.408Z,1008.65
2018-12-20T11:23:06.391Z,1008.64
2018-12-20T11:24:06.396Z,1008.61
2018-12-20T11:25:06.395Z,1008.60
2018-12-20T11:26:06.369Z,1008.58
2018-12-20T11:27:06.352Z,1008.55
2018-12-20T11:28:06.357Z,1008.56
2018-12-20T11:29:06.336Z,1008.55
2018-12-20T11:30:06.328Z,1008.52
2018-12-20T11:31:06.347Z,1008.52
2018-12-20T11:32:06.294Z,1008.57
2018-12-20T11:33:06.306Z,1008.53
2018-12-20T11:34:06.287Z,1008.55
2018-12-20T11:35:06.263Z,1008.57
2018-12-20T11:36:06.248Z,1008.53
2018-12-20T11:37:06.243Z,1008.57
2018-12-20T11:38:06.231Z,1008.52
2018-12-20T11:39:08.470Z,1008.57
2018-12-20T11:40:06.218Z,1008.54
2018-12-20T11:41:06.203Z,1008.56
2018-12-20T11:42:06.192Z,1008.59
2018-12-20T11:43:06.186Z,1008.57
2018-12-20T11:44:06.169Z,1008.58
2018-12-20T11:45:06.164Z,1008.60
2018-12-20T11:46:06.144Z,1008.62
2018-12-20T11:47:06.141Z,1008.57
2018-12-20T11:48:06.129Z,1008.56
2018-12-20T11:49:06.126Z,1008.55
2018-12-20T11:50:06.121Z,1008.60
2018-12-20T11:51:06.095Z,1008.56
2018-12-20T11:52:06.084Z,1008.58
2018-12-20T11:53:06.072Z,1008.49
2018-12-20T11:54:06.058Z,1008.54
2018-12-20T11:55:07.870Z,1008.49
2018-12-20T11:56:06.046Z,1008.50
2018-12-20T11:57:06.036Z,1008.53
2018-12-20T11:58:06.034Z,1008.52
2018-12-20T11:59:06.007Z,1008.48
2018-12-20T12:00:06.033Z,1008.51
2018-12-20T12:01:05.997Z,1008.45
2018-12-20T12:02:05.978Z,1008.49
2018-12-20T12:03:06.013Z,1008.46
2018-12-20T12:04:05.972Z,1008.44
2018-12-20T12:05:05.946Z,1008.46
2018-12-20T12:06:05.925Z,1008.48
2018-12-20T12:07:05.924Z,1008.45
2018-12-20T12:08:06.838Z,1008.53